Withams, Virginia
Current Conditions -  °F | °C
As of 8:54 PM on Saturday 25 Oct 2014 (Local Time) from KWAL Reporting Station
Clear Clear  
Wind Chill: 60°   Ceiling: Unl
Heat Index: 60°   Visibility: 10mi
Dew Point: 45°   Wind: 9mph
Humidity: 57%   Direction: 240°WSW
Pressure: 29.78"   Gusts: NA
Location:  37.95°N, 75.58°W
Report Text: KWAL 260054Z 24008KT 10SM CLR 16/07 A2978 RMK AO2 SLP083 T01560072
Loading
Personal Weather Stations






























Interactive Weather Map
Tropical Storm Tracking
New forecast layout! Learn more

10-Day Weather Forecast

Advertisements
Track Severe Weather on mobile